Flight Track Log - Related Links

Times and Time Zones

All times are in EDT time to prevent confusion due to time zone crossing. See the KAP5 flight status page for this flight to view local times or setup timezone preferences in your user account.

Time Position Orientation Groundspeed Altitude Reporting Facility
EDT Latitude Longitude Course Direction KTS MPH feet Rate Location/Type
Fri 02:18:14 PM 42.3667 -71.0167 216° Southwest 90 104 600  Level KA90
Fri 02:19:02 PM 42.3500 -71.0333 216° Southwest 90 104 1,300 889 Climbing KA90
Fri 02:20:02 PM 42.3333 -71.0667 236° Southwest 91 105 2,200 857 Climbing KA90
Fri 02:21:08 PM 42.3000 -71.0833 200° South 86 99 3,100 842 Climbing KA90
Fri 02:21:56 PM 42.2833 -71.0833 180° South 88 101 3,800 895 Climbing KA90
Fri 02:23:02 PM 42.2667 -71.0500 124° Southeast 122 140 4,800 524 Climbing KA90
Fri 02:24:02 PM 42.2500 -71.0000 114° Southeast 144 166 4,900 48 Climbing KA90
Fri 02:25:08 PM 42.2167 -70.9500 132° Southeast 152 175 4,900  Level KA90
Fri 02:26:02 PM 42.2000 -70.9000 114° Southeast 162 186 4,900  Level KA90
Fri 02:27:02 PM 42.1833 -70.8500 114° Southeast 188 216 4,900  Level KA90
Fri 02:28:08 PM 42.1667 -70.7667 105° East 181 208 4,900  Level KA90
Fri 02:28:56 PM 42.1500 -70.7167 114° Southeast 184 212 4,900  Level KA90
Fri 02:30:08 PM 42.1333 -70.6333 105° East 181 208 4,900  Level KA90
Fri 02:32:00 PM 42.1334 -70.5460 90° East  Level FlightAware Approximate
Fri 02:39:00 PM 41.9090 -70.4208 114° Southeast  Level Estimated
Fri 02:40:00 PM 41.9212 -70.3772 69° East  Level FlightAware Approximate
Fri 02:41:00 PM 41.9334 -70.3335 69° East  Level FlightAware Approximate
Fri 02:42:00 PM 41.9456 -70.2898 69° East  Level FlightAware Approximate
Fri 02:43:00 PM 41.9578 -70.2461 69° East  Level FlightAware Approximate
Fri 02:44:00 PM 41.9237 -70.2371 180° South  Level Estimated
Fri 02:45:00 PM 41.8923 -70.2172 155° Southeast  Level FlightAware Approximate
Fri 02:46:00 PM 41.8609 -70.1973 155° Southeast  Level FlightAware Approximate
Fri 02:47:00 PM 41.8295 -70.1775 155° Southeast  Level FlightAware Approximate
Fri 02:48:00 PM 41.7981 -70.1577 155° Southeast  Level FlightAware Approximate
Fri 02:49:00 PM 41.7667 -70.1379 155° Southeast  Level FlightAware Approximate
Fri 02:50:00 PM 41.7353 -70.1182 155° Southeast  Level FlightAware Approximate
Fri 02:51:00 PM 41.7039 -70.0984 155° Southeast  Level FlightAware Approximate
Fri 02:52:00 PM 41.6725 -70.0787 155° Southeast  Level FlightAware Approximate
Fri 02:53:00 PM 41.6410 -70.0590 155° Southeast  Level FlightAware Approximate
Fri 02:54:00 PM 41.6096 -70.0394 155° Southeast  Level FlightAware Approximate
Fri 02:55:00 PM 41.5782 -70.0197 155° Southeast  Level FlightAware Approximate
Fri 02:56:00 PM 41.5707 -70.0392 189° South  Level FlightAware Approximate
Fri 02:57:00 PM 41.5363 -70.0461 189° South  Level FlightAware Approximate
Fri 02:58:00 PM 41.5019 -70.0500 180° South  Level FlightAware Approximate
Fri 02:59:00 PM 41.4672 -70.0500 180° South  Level FlightAware Approximate
Fri 03:00:00 PM 41.4325 -70.0500 180° South  Level FlightAware Approximate
Fri 03:01:00 PM 41.3978 -70.0500 180° South  Level FlightAware Approximate
Fri 03:02:00 PM 41.3631 -70.0500 180° South  Level FlightAware Approximate
Fri 03:03:00 PM 41.3284 -70.0500 180° South  Level FlightAware Approximate
Fri 03:04:00 PM 41.2937 -70.0500 180° South  Level FlightAware Approximate
Fri 03:05:00 PM 41.2590 -70.0500 180° South  Level FlightAware Approximate
Fri 03:06:00 PM 41.2500 -70.0500 180° South  Level FlightAware Approximate
Fri 03:07:00 PM 41.2531 -70.0603 180° South  Level Estimated
Fri 03:08:00 PM 41.2531 -70.0603 180° South  Level Estimated
Fri 03:09:00 PM 41.2531 -70.0603 180° South  Level Estimated
Fri 03:10:00 PM 41.2531 -70.0603 180° South  Level Estimated
Fri 03:11:00 PM 41.2531 -70.0603 180° South  Level Estimated
Fri 03:12:00 PM 41.2531 -70.0603 180° South  Level Estimated
Fri 03:13:00 PM 41.2531 -70.0603 180° South  Level Estimated
Fri 03:14:00 PM 41.2531 -70.0603 180° South  Level Estimated

Login

Don't have an account? Register now (free) for customized features, flight alerts, and more!